Greifswald — 3FEC8 — position and weather

sailwx.info

Track history (hours):
 
Tides and Currents Weather Stations Pressure Air Temp Water Temp Dewpoint Dewpoint Depression Visibility Wind Speed Wind Dir Waves Ship Positions

Greifswald

Last reported at 2017-Mar-22 23:10 UTC. Time now 2017-Mar-25 09:52 UTC.
Position N 45°46' E 030°54'.

Length 191 m; draft 6.5 m.

Type: Passenger vessel. MMSI: 370492000.

Date/timePositionNaut miles runAvg speedWind from/ knotsBaromVisibWave heightAir tempDewpointWater temp
2017-Mar-22 23:10N 45°46' E 030°54'1413.6
2017-Mar-22 22:09N 45°59' E 030°50'1313.6
2017-Mar-22 21:14N 46°12' E 030°47'811.9
2017-Mar-22 20:33N 46°19' E 030°41'2 0.2
2017-Mar-22 08:34N 46°21' E 030°39'8 7.3
2017-Mar-22 07:26N 46°18' E 030°50'  
2017-Mar-18 04:31N 46°16' E 030°50'9 8.6
2017-Mar-18 03:28N 46°21' E 030°39'0 0.0
2017-Mar-18 02:29N 46°21' E 030°39'0 0.0
2017-Mar-18 01:28N 46°21' E 030°39'0 0.0
2017-Mar-18 00:28N 46°21' E 030°39'0 0.0
2017-Mar-17 23:29N 46°21' E 030°39'0 0.0
2017-Mar-17 22:29N 46°21' E 030°39'0 0.0
2017-Mar-17 17:27N 46°21' E 030°39'0 0.0
2017-Mar-17 16:25N 46°21' E 030°39'0 0.2
2017-Mar-17 15:30N 46°21' E 030°39'4 4.0
2017-Mar-17 14:28N 46°19' E 030°44'  
2017-Mar-14 03:33N 46°16' E 030°51'10 0.6
2017-Mar-13 12:16N 46°21' E 030°39'2 2.7
2017-Mar-13 11:28N 46°19' E 030°41'  
Track history (hours):
 
Tides and Currents Weather Stations Pressure Air Temp Water Temp Dewpoint Dewpoint Depression Visibility Wind Speed Wind Dir Waves Ship Positions

Greifswald

Last reported at 2017-Mar-22 23:10 UTC. Time now 2017-Mar-25 09:52 UTC.
Position N 45°46' E 030°54'.

Length 191 m; draft 6.5 m.

Type: Passenger vessel. MMSI: 370492000.

Date/timePositionNaut miles runAvg speedWind from/ knotsBaromVisibWave heightAir tempDewpointWater temp
2017-Mar-22 23:10N 45°46' E 030°54'1413.6
2017-Mar-22 22:09N 45°59' E 030°50'1313.6
2017-Mar-22 21:14N 46°12' E 030°47'811.9
2017-Mar-22 20:33N 46°19' E 030°41'2 0.2
2017-Mar-22 08:34N 46°21' E 030°39'8 7.3
2017-Mar-22 07:26N 46°18' E 030°50'  
2017-Mar-18 04:31N 46°16' E 030°50'9 8.6
2017-Mar-18 03:28N 46°21' E 030°39'0 0.0
2017-Mar-18 02:29N 46°21' E 030°39'0 0.0
2017-Mar-18 01:28N 46°21' E 030°39'0 0.0
2017-Mar-18 00:28N 46°21' E 030°39'0 0.0
2017-Mar-17 23:29N 46°21' E 030°39'0 0.0
2017-Mar-17 22:29N 46°21' E 030°39'0 0.0
2017-Mar-17 17:27N 46°21' E 030°39'0 0.0
2017-Mar-17 16:25N 46°21' E 030°39'0 0.2
2017-Mar-17 15:30N 46°21' E 030°39'4 4.0
2017-Mar-17 14:28N 46°19' E 030°44'  
2017-Mar-14 03:33N 46°16' E 030°51'10 0.6
2017-Mar-13 12:16N 46°21' E 030°39'2 2.7
2017-Mar-13 11:28N 46°19' E 030°41'  

Dump ship's entire track history